Terminal Aerodrome Forecast
Issued by NWS Denver/Boulder, CO

Home | Current Version | Previous Version | Text Only | Print | Product List | Glossary On
Versions: 1 2 3 4 5 6 7 8 9 10 11 12 13 14 15 16 17 18 19 20 21 22 23 24 25 26 27 28 29 30 31 32 33 34 35 36 37 38 39 40 41 42 43 44 45 46 47 48 49 50
000
FTUS45 KBOU 191121
TAFDEN
TAF
KDEN 191121Z 1912/2018 29007KT P6SM FEW220
     FM191500 25008KT P6SM SCT220
     FM191800 19008KT P6SM FEW140 SCT220
     FM192100 16014KT P6SM FEW140 SCT220
     FM200200 20008KT P6SM FEW220
     FM200600 20012KT P6SM SCT220
     FM201200 24008KT P6SM FEW140 SCT220=

USA.gov is the U.S. government's official web portal to all federal, state and local government web resources and services.